createdAt,value
2018-07-11T00:00:23.181Z,98383.31
2018-07-11T00:02:50.411Z,98375.05
2018-07-11T00:05:17.699Z,98375.52
2018-07-11T00:07:44.969Z,98370.23
2018-07-11T00:10:12.277Z,98369.77
2018-07-11T00:12:39.503Z,98373.80
2018-07-11T00:15:06.866Z,98370.30
2018-07-11T00:20:24.310Z,98364.02
2018-07-11T00:22:51.617Z,98374.95
2018-07-11T00:25:18.908Z,98371.05
2018-07-11T00:27:46.175Z,98373.81
2018-07-11T00:30:13.468Z,98372.80
2018-07-11T00:32:40.692Z,98371.74
2018-07-11T00:35:08.006Z,98369.89
2018-07-11T00:37:35.274Z,98368.08
2018-07-11T00:40:02.617Z,98366.23
2018-07-11T00:42:29.913Z,98370.20
2018-07-11T00:44:57.226Z,98372.08
2018-07-11T00:47:24.515Z,98371.22
2018-07-11T00:49:51.798Z,98376.10
2018-07-11T00:52:19.323Z,98370.75
2018-07-11T00:54:46.636Z,98368.11
2018-07-11T00:57:14.102Z,98362.80
2018-07-11T00:59:41.560Z,98368.18
2018-07-11T01:02:08.842Z,98365.47
2018-07-11T01:04:36.121Z,98364.91
2018-07-11T01:07:05.184Z,98365.30
2018-07-11T01:09:46.138Z,98359.89
2018-07-11T01:12:13.433Z,98357.15
2018-07-11T01:14:40.737Z,98354.37
2018-07-11T01:17:14.547Z,98360.45
2018-07-11T01:19:42.714Z,98357.55
2018-07-11T01:22:10.024Z,98350.18
2018-07-11T01:24:37.293Z,98356.39
2018-07-11T01:27:04.922Z,98350.55
2018-07-11T01:29:32.168Z,98347.37
2018-07-11T01:31:59.479Z,98346.05
2018-07-11T01:34:26.745Z,98350.14
2018-07-11T01:36:54.274Z,98352.89
2018-07-11T01:39:21.553Z,98350.38
2018-07-11T01:41:48.828Z,98350.77
2018-07-11T01:44:16.109Z,98352.23
2018-07-11T01:46:45.978Z,98354.97
2018-07-11T01:49:13.506Z,98347.84
2018-07-11T01:53:47.906Z,98350.08
2018-07-11T01:56:15.222Z,98358.70
2018-07-11T01:58:44.494Z,98355.73
2018-07-11T02:01:12.017Z,98361.53
2018-07-11T02:03:39.327Z,98349.65
2018-07-11T02:06:07.232Z,98355.20
2018-07-11T02:08:34.735Z,98359.45
2018-07-11T02:11:02.042Z,98358.53
2018-07-11T02:13:31.497Z,98350.61
2018-07-11T02:15:58.805Z,98352.72
2018-07-11T02:18:27.768Z,98353.13
2018-07-11T02:20:55.581Z,98356.36
2018-07-11T02:23:23.480Z,98352.45
2018-07-11T02:25:50.774Z,98355.10
2018-07-11T02:28:18.542Z,98350.22
2018-07-11T02:30:45.862Z,98350.67
2018-07-11T02:33:13.153Z,98345.72
2018-07-11T02:35:41.286Z,98350.34
2018-07-11T02:38:08.599Z,98346.61
2018-07-11T02:40:35.913Z,98349.58
2018-07-11T02:43:03.184Z,98344.06
2018-07-11T02:45:30.514Z,98347.00
2018-07-11T02:47:57.797Z,98343.31
2018-07-11T02:50:25.164Z,98345.55
2018-07-11T02:52:52.471Z,98342.74
2018-07-11T02:55:19.741Z,98348.86
2018-07-11T02:57:47.100Z,98342.41
2018-07-11T03:00:14.361Z,98338.98
2018-07-11T03:02:41.703Z,98345.58
2018-07-11T03:05:09.118Z,98346.05
2018-07-11T03:07:36.506Z,98343.41
2018-07-11T03:10:04.027Z,98341.29
2018-07-11T03:12:31.501Z,98338.84
2018-07-11T03:14:58.785Z,98350.00
2018-07-11T03:17:26.452Z,98347.13
2018-07-11T03:19:54.852Z,98342.04
2018-07-11T03:22:23.629Z,98337.25
2018-07-11T03:24:51.514Z,98344.70
2018-07-11T03:27:18.894Z,98336.23
2018-07-11T03:29:46.256Z,98343.56
2018-07-11T03:32:13.812Z,98338.80
2018-07-11T03:34:41.199Z,98343.16
2018-07-11T03:37:08.650Z,98336.96
2018-07-11T03:39:36.480Z,98339.97
2018-07-11T03:42:04.582Z,98344.36
2018-07-11T03:44:32.001Z,98338.91
2018-07-11T03:46:59.373Z,98344.36
2018-07-11T03:49:26.773Z,98353.38
2018-07-11T03:51:54.463Z,98340.84
2018-07-11T03:54:21.911Z,98339.81
2018-07-11T03:56:49.317Z,98350.61
2018-07-11T03:59:17.318Z,98342.69
2018-07-11T04:01:44.685Z,98340.17
2018-07-11T04:04:12.072Z,98347.17
2018-07-11T04:06:39.507Z,98346.37
2018-07-11T04:09:07.494Z,98344.00
2018-07-11T04:11:35.681Z,98348.09
2018-07-11T04:14:03.061Z,98354.17
2018-07-11T04:16:30.461Z,98357.34
2018-07-11T04:18:57.810Z,98367.38
2018-07-11T04:21:25.136Z,98363.88
2018-07-11T04:23:52.516Z,98371.91
2018-07-11T04:26:19.934Z,98364.81
2018-07-11T04:28:47.335Z,98370.48
2018-07-11T04:31:14.789Z,98374.78
2018-07-11T04:33:42.243Z,98372.47
2018-07-11T04:36:09.699Z,98377.20
2018-07-11T04:38:37.153Z,98379.25
2018-07-11T04:41:05.167Z,98368.64
2018-07-11T04:43:32.643Z,98374.55
2018-07-11T04:46:00.097Z,98373.36
2018-07-11T04:48:27.506Z,98377.20
2018-07-11T04:50:54.918Z,98381.89
2018-07-11T04:53:25.254Z,98380.00
2018-07-11T04:55:57.336Z,98385.69
2018-07-11T04:58:25.019Z,98382.28
2018-07-11T05:00:52.337Z,98377.33
2018-07-11T05:03:19.661Z,98381.29
2018-07-11T05:05:47.030Z,98384.59
2018-07-11T05:08:14.439Z,98380.10
2018-07-11T05:10:41.791Z,98387.41
2018-07-11T05:13:09.210Z,98382.28
2018-07-11T05:15:36.623Z,98388.36
2018-07-11T05:18:04.198Z,98399.00
2018-07-11T05:20:31.502Z,98397.84
2018-07-11T05:22:59.271Z,98396.05
2018-07-11T05:25:27.258Z,98396.29
2018-07-11T05:27:54.618Z,98397.38
2018-07-11T05:30:21.959Z,98395.36
2018-07-11T05:32:49.866Z,98397.41
2018-07-11T05:35:17.214Z,98400.81
2018-07-11T05:37:44.539Z,98391.48
2018-07-11T05:40:12.633Z,98399.28
2018-07-11T05:42:39.986Z,98397.43
2018-07-11T05:45:07.482Z,98394.78
2018-07-11T05:47:34.810Z,98397.73
2018-07-11T05:50:02.176Z,98402.08
2018-07-11T05:52:29.537Z,98406.05
2018-07-11T05:54:57.084Z,98400.44
2018-07-11T05:57:24.415Z,98397.86
2018-07-11T05:59:51.787Z,98398.25
2018-07-11T06:02:19.156Z,98400.50
2018-07-11T06:04:46.536Z,98396.25
2018-07-11T06:07:14.557Z,98394.66
2018-07-11T06:09:41.932Z,98395.23
2018-07-11T06:12:09.297Z,98403.39
2018-07-11T06:14:36.717Z,98403.92
2018-07-11T06:17:04.197Z,98405.77
2018-07-11T06:19:31.546Z,98398.41
2018-07-11T06:21:59.066Z,98400.02
2018-07-11T06:24:26.429Z,98400.97
2018-07-11T06:26:54.435Z,98405.87
2018-07-11T06:29:22.478Z,98411.91
2018-07-11T06:31:49.829Z,98410.00
2018-07-11T06:34:17.227Z,98412.54
2018-07-11T06:36:44.560Z,98414.59
2018-07-11T06:39:12.005Z,98413.16
2018-07-11T06:41:39.297Z,98420.56
2018-07-11T06:44:06.678Z,98420.44
2018-07-11T06:46:33.978Z,98420.59
2018-07-11T06:49:02.179Z,98425.64
2018-07-11T06:51:29.554Z,98426.86
2018-07-11T06:53:57.796Z,98421.87
2018-07-11T06:56:25.175Z,98421.49
2018-07-11T06:58:52.555Z,98428.36
2018-07-11T07:01:19.944Z,98429.73
2018-07-11T07:03:47.871Z,98424.84
2018-07-11T07:06:15.732Z,98429.20
2018-07-11T07:08:43.178Z,98424.80
2018-07-11T07:11:10.582Z,98418.91
2018-07-11T07:13:39.546Z,98417.94
2018-07-11T07:16:07.623Z,98414.75
2018-07-11T07:18:35.066Z,98411.75
2018-07-11T07:21:02.409Z,98406.88
2018-07-11T07:23:29.762Z,98408.17
2018-07-11T07:25:57.168Z,98401.94
2018-07-11T07:28:24.581Z,98399.89
2018-07-11T07:30:52.897Z,98396.70
2018-07-11T07:33:20.299Z,98403.92
2018-07-11T07:35:48.285Z,98401.41
2018-07-11T07:38:15.703Z,98399.00
2018-07-11T07:40:43.090Z,98396.77
2018-07-11T07:43:10.520Z,98392.58
2018-07-11T07:45:39.068Z,98392.45
2018-07-11T07:48:06.576Z,98390.27
2018-07-11T07:50:33.958Z,98386.53
2018-07-11T07:53:01.333Z,98394.90
2018-07-11T07:55:28.727Z,98388.22
2018-07-11T07:57:56.125Z,98385.46
2018-07-11T08:00:23.527Z,98380.75
2018-07-11T08:02:50.888Z,98383.84
2018-07-11T08:05:18.392Z,98387.53
2018-07-11T08:07:45.741Z,98381.72
2018-07-11T08:10:14.005Z,98383.72
2018-07-11T08:12:41.479Z,98377.98
2018-07-11T08:15:09.484Z,98381.91
2018-07-11T08:17:37.090Z,98379.88
2018-07-11T08:20:04.638Z,98379.47
2018-07-11T08:23:12.271Z,98374.80
2018-07-11T08:25:51.426Z,98374.84
2018-07-11T08:32:36.283Z,98378.60
2018-07-11T08:35:13.604Z,98379.47
2018-07-11T08:37:58.410Z,98384.05
2018-07-11T08:42:43.766Z,98379.58
2018-07-11T08:45:36.219Z,98373.45
2018-07-11T08:48:15.925Z,98371.49
2018-07-11T08:51:00.396Z,98374.61
2018-07-11T08:55:43.823Z,98375.07
2018-07-11T08:58:23.521Z,98371.23
2018-07-11T09:01:08.877Z,98379.17
2018-07-11T09:06:02.783Z,98379.27
2018-07-11T09:08:47.667Z,98381.70
2018-07-11T09:11:43.168Z,98373.05
2018-07-11T09:16:23.907Z,98371.61
2018-07-11T09:21:25.214Z,98369.21
2018-07-11T09:24:14.862Z,98374.67
2018-07-11T09:26:42.212Z,98371.92
2018-07-11T09:29:09.568Z,98370.02
2018-07-11T09:31:37.620Z,98372.40
2018-07-11T09:34:04.927Z,98373.80
2018-07-11T09:36:32.329Z,98364.39
2018-07-11T09:38:59.689Z,98373.64
2018-07-11T09:41:27.117Z,98374.62
2018-07-11T09:43:54.579Z,98358.86
2018-07-11T09:46:21.967Z,98364.28
2018-07-11T09:48:49.451Z,98369.83
2018-07-11T09:51:16.853Z,98365.71
2018-07-11T09:53:44.289Z,98361.51
2018-07-11T09:56:11.677Z,98365.89
2018-07-11T09:58:39.899Z,98357.66
2018-07-11T10:01:27.849Z,98358.25
2018-07-11T10:03:56.628Z,98359.93
2018-07-11T10:06:25.175Z,98355.31
2018-07-11T10:08:53.065Z,98349.34
2018-07-11T10:11:20.582Z,98352.36
2018-07-11T10:13:48.462Z,98349.18
2018-07-11T10:16:16.424Z,98336.09
2018-07-11T10:18:51.946Z,98332.51
2018-07-11T10:21:19.289Z,98329.66
2018-07-11T10:23:46.654Z,98319.80
2018-07-11T10:26:14.014Z,98323.76
2018-07-11T10:28:41.414Z,98326.25
2018-07-11T10:31:09.985Z,98319.02
2018-07-11T10:33:37.359Z,98318.36
2018-07-11T10:36:05.717Z,98317.81
2018-07-11T10:38:33.130Z,98310.48
2018-07-11T10:41:00.454Z,98314.27
2018-07-11T10:43:41.321Z,98310.34
2018-07-11T10:46:08.684Z,98310.32
2018-07-11T10:48:36.457Z,98310.73
2018-07-11T10:51:03.999Z,98314.55
2018-07-11T10:53:32.004Z,98312.60
2018-07-11T10:55:59.362Z,98307.18
2018-07-11T10:58:26.771Z,98304.91
2018-07-11T11:01:05.695Z,98311.83
2018-07-11T11:03:22.738Z,98315.83
2018-07-11T11:05:50.113Z,98313.54
2018-07-11T11:08:17.425Z,98318.48
2018-07-11T11:10:44.811Z,98315.80
2018-07-11T11:13:12.157Z,98322.08
2018-07-11T11:15:39.571Z,98319.77
2018-07-11T11:18:06.964Z,98323.05
2018-07-11T11:20:34.445Z,98331.80
2018-07-11T11:23:01.972Z,98334.02
2018-07-11T11:25:29.402Z,98327.45
2018-07-11T11:27:56.754Z,98333.39
2018-07-11T11:30:24.144Z,98333.02
2018-07-11T11:32:52.190Z,98334.12
2018-07-11T11:35:19.611Z,98337.13
2018-07-11T11:37:46.959Z,98344.41
2018-07-11T11:40:14.469Z,98345.09
2018-07-11T11:42:41.904Z,98353.09
2018-07-11T11:45:09.848Z,98351.81
2018-07-11T11:47:37.182Z,98363.78
2018-07-11T11:50:05.731Z,98363.70
2018-07-11T11:52:33.145Z,98358.81
2018-07-11T11:55:00.570Z,98363.60
2018-07-11T11:57:27.958Z,98366.83
2018-07-11T11:59:56.216Z,98372.22
2018-07-11T12:02:23.571Z,98376.13
2018-07-11T12:04:51.024Z,98372.09
2018-07-11T12:07:18.509Z,98382.11
2018-07-11T12:09:46.718Z,98384.06
2018-07-11T12:12:14.043Z,98388.97
2018-07-11T12:14:41.420Z,98394.50
2018-07-11T12:17:08.794Z,98397.88
2018-07-11T12:19:36.199Z,98395.98
2018-07-11T12:22:03.628Z,98399.63
2018-07-11T12:24:31.060Z,98403.63
2018-07-11T12:26:58.445Z,98402.38
2018-07-11T12:29:25.835Z,98401.30
2018-07-11T12:31:53.123Z,98396.28
2018-07-11T12:34:20.462Z,98398.95
2018-07-11T12:36:47.881Z,98400.47
2018-07-11T12:39:15.642Z,98387.70
2018-07-11T12:41:43.170Z,98383.95
2018-07-11T12:44:10.552Z,98384.41
2018-07-11T12:46:37.997Z,98385.50
2018-07-11T12:49:06.305Z,98369.78
2018-07-11T12:51:34.104Z,98373.31
2018-07-11T12:54:01.933Z,98368.13
2018-07-11T12:56:29.502Z,98371.36
2018-07-11T12:58:57.815Z,98368.81
2018-07-11T13:01:25.490Z,98379.34
2018-07-11T13:03:55.135Z,98376.20
2018-07-11T13:06:23.022Z,98382.68
2018-07-11T13:08:50.430Z,98381.40
2018-07-11T13:11:17.847Z,98376.87
2018-07-11T13:13:48.243Z,98372.88
2018-07-11T13:16:16.204Z,98368.06
2018-07-11T13:18:43.461Z,98375.05
2018-07-11T13:21:11.434Z,98374.27
2018-07-11T13:23:38.781Z,98374.05
2018-07-11T13:26:06.238Z,98375.28
2018-07-11T13:28:33.562Z,98377.09
2018-07-11T13:31:00.966Z,98373.09
2018-07-11T13:33:28.349Z,98374.73
2018-07-11T13:35:56.311Z,98363.63
2018-07-11T13:38:23.620Z,98357.86
2018-07-11T13:40:51.099Z,98361.74
2018-07-11T13:43:18.475Z,98353.48
2018-07-11T13:46:06.327Z,98346.80
2018-07-11T13:48:33.719Z,98346.95
2018-07-11T13:51:01.170Z,98346.25
2018-07-11T13:53:28.449Z,98350.55
2018-07-11T13:55:55.760Z,98350.81
2018-07-11T13:58:23.016Z,98349.14
2018-07-11T14:00:51.266Z,98343.16
2018-07-11T14:03:19.307Z,98343.20
2018-07-11T14:05:46.889Z,98348.14
2018-07-11T14:08:14.269Z,98339.33
2018-07-11T14:10:41.816Z,98338.59
2018-07-11T14:13:09.386Z,98340.02
2018-07-11T14:15:36.732Z,98340.45
2018-07-11T14:18:04.252Z,98338.68
2018-07-11T14:20:31.683Z,98337.17
2018-07-11T14:23:06.521Z,98331.34
2018-07-11T14:25:36.512Z,98333.08
2018-07-11T14:28:03.980Z,98337.95
2018-07-11T14:30:31.926Z,98332.25
2018-07-11T14:33:03.209Z,98328.34
2018-07-11T14:35:30.951Z,98334.17
2018-07-11T14:37:58.320Z,98330.52
2018-07-11T14:40:25.740Z,98336.14
2018-07-11T14:42:53.142Z,98329.56
2018-07-11T14:45:20.594Z,98327.47
2018-07-11T14:47:53.786Z,98333.47
2018-07-11T14:50:21.232Z,98323.22
2018-07-11T14:52:48.730Z,98330.02
2018-07-11T14:55:16.153Z,98328.98
2018-07-11T14:57:43.578Z,98333.04
2018-07-11T15:00:11.328Z,98327.98
2018-07-11T15:02:38.790Z,98327.19
2018-07-11T15:05:06.271Z,98329.72
2018-07-11T15:07:33.638Z,98326.09
2018-07-11T15:10:01.006Z,98331.50
2018-07-11T15:12:28.427Z,98333.11
2018-07-11T15:14:56.829Z,98339.61
2018-07-11T15:17:24.266Z,98339.16
2018-07-11T15:19:51.817Z,98337.97
2018-07-11T15:22:19.702Z,98333.36
2018-07-11T15:24:47.935Z,98332.39
2018-07-11T15:27:15.474Z,98332.16
2018-07-11T15:29:42.850Z,98328.17
2018-07-11T15:32:10.361Z,98337.55
2018-07-11T15:34:38.163Z,98340.94
2018-07-11T15:37:05.670Z,98335.23
2018-07-11T15:39:33.988Z,98333.16
2018-07-11T15:42:02.586Z,98339.45
2018-07-11T15:44:29.971Z,98332.13
2018-07-11T15:46:57.355Z,98332.23
2018-07-11T15:49:24.891Z,98331.76
2018-07-11T15:51:52.362Z,98333.56
2018-07-11T15:54:20.044Z,98336.44
2018-07-11T15:56:47.343Z,98336.23
2018-07-11T15:59:18.458Z,98329.73
2018-07-11T16:01:51.837Z,98340.70
2018-07-11T16:04:24.526Z,98341.52
2018-07-11T16:06:51.916Z,98333.92
2018-07-11T16:09:19.679Z,98335.53
2018-07-11T16:11:47.066Z,98334.58
2018-07-11T16:14:14.433Z,98322.50
2018-07-11T16:16:41.872Z,98323.09
2018-07-11T16:19:09.473Z,98323.48
2018-07-11T16:21:36.830Z,98326.35
2018-07-11T16:24:04.334Z,98319.48
2018-07-11T16:26:31.745Z,98330.67
2018-07-11T16:28:59.154Z,98326.72
2018-07-11T16:31:26.617Z,98318.14
2018-07-11T16:33:54.180Z,98325.00
2018-07-11T16:36:21.567Z,98325.40
2018-07-11T16:38:49.151Z,98325.16
2018-07-11T16:41:17.317Z,98325.38
2018-07-11T16:43:44.753Z,98325.13
2018-07-11T16:46:12.775Z,98323.55
2018-07-11T16:48:40.307Z,98322.13
2018-07-11T16:51:07.761Z,98324.30
2018-07-11T16:53:36.413Z,98318.56
2018-07-11T16:56:04.312Z,98321.02
2018-07-11T16:58:37.834Z,98332.66
2018-07-11T17:01:05.482Z,98333.92
2018-07-11T17:03:34.532Z,98332.13
2018-07-11T17:06:05.294Z,98334.78
2018-07-11T17:08:35.036Z,98334.64
2018-07-11T17:11:14.915Z,98335.63
2018-07-11T17:13:46.123Z,98339.54
2018-07-11T17:16:13.503Z,98344.98
2018-07-11T17:18:47.746Z,98336.97
2018-07-11T17:21:28.602Z,98339.54
2018-07-11T17:24:02.554Z,98343.34
2018-07-11T17:26:30.001Z,98342.69
2018-07-11T17:28:59.336Z,98345.35
2018-07-11T17:31:27.003Z,98348.02
2018-07-11T17:33:54.409Z,98341.35
2018-07-11T17:36:21.799Z,98341.55
2018-07-11T17:38:49.216Z,98345.35
2018-07-11T17:41:17.082Z,98341.77
2018-07-11T17:43:49.624Z,98352.05
2018-07-11T17:46:20.143Z,98356.13
2018-07-11T17:48:58.716Z,98363.69
2018-07-11T17:51:40.366Z,98361.56
2018-07-11T17:54:08.513Z,98364.97
2018-07-11T17:56:47.482Z,98365.34
2018-07-11T17:59:15.345Z,98372.84
2018-07-11T18:01:48.367Z,98372.75
2018-07-11T18:05:55.378Z,98371.59
2018-07-11T18:08:28.348Z,98365.94
2018-07-11T18:10:57.290Z,98363.20
2018-07-11T18:13:26.485Z,98362.44
2018-07-11T18:17:09.749Z,98364.22
2018-07-11T18:20:55.425Z,98362.97
2018-07-11T18:23:30.978Z,98362.94
2018-07-11T18:26:06.844Z,98364.20
2018-07-11T18:28:41.141Z,98371.41
2018-07-11T18:31:19.691Z,98374.73
2018-07-11T18:34:23.855Z,98374.33
2018-07-11T18:37:24.514Z,98378.16
2018-07-11T18:40:01.201Z,98375.94
2018-07-11T18:42:41.546Z,98374.57
2018-07-11T18:47:25.874Z,98376.81
2018-07-11T18:50:12.703Z,98377.09
2018-07-11T18:53:21.329Z,98375.20
2018-07-11T18:56:04.067Z,98371.02
2018-07-11T18:59:09.351Z,98377.91
2018-07-11T19:01:50.036Z,98373.28
2018-07-11T19:04:29.012Z,98373.98
2018-07-11T19:07:09.242Z,98379.39
2018-07-11T19:09:51.415Z,98381.07
2018-07-11T19:12:27.301Z,98387.18
2018-07-11T19:18:05.760Z,98380.89
2018-07-11T19:20:42.722Z,98384.58
2018-07-11T19:23:18.540Z,98379.84
2018-07-11T19:26:00.346Z,98385.37
2018-07-11T19:28:40.264Z,98391.72
2018-07-11T19:33:22.610Z,98396.72
2018-07-11T19:36:01.731Z,98396.05
2018-07-11T19:38:40.900Z,98395.81
2018-07-11T19:41:15.327Z,98405.88
2018-07-11T19:44:21.581Z,98404.33
2018-07-11T19:48:08.016Z,98411.73
2018-07-11T19:50:46.969Z,98425.78
2018-07-11T19:53:55.465Z,98420.47
2018-07-11T19:56:36.278Z,98425.31
2018-07-11T19:59:04.645Z,98420.31
2018-07-11T20:01:32.663Z,98418.75
2018-07-11T20:04:00.194Z,98423.75
2018-07-11T20:06:27.842Z,98426.55
2018-07-11T20:08:55.433Z,98429.91
2018-07-11T20:11:24.262Z,98431.75
2018-07-11T20:13:52.900Z,98432.30
2018-07-11T20:16:21.373Z,98442.14
2018-07-11T20:18:49.126Z,98434.18
2018-07-11T20:21:17.226Z,98440.42
2018-07-11T20:23:45.343Z,98436.05
2018-07-11T20:26:13.231Z,98436.73
2018-07-11T20:28:41.942Z,98445.23
2018-07-11T20:31:09.589Z,98443.52
2018-07-11T20:33:37.862Z,98441.92
2018-07-11T20:36:07.600Z,98444.57
2018-07-11T20:38:35.860Z,98448.59
2018-07-11T20:41:03.308Z,98444.34
2018-07-11T20:43:31.918Z,98448.52
2018-07-11T20:46:00.064Z,98440.72
2018-07-11T20:48:28.206Z,98432.40
2018-07-11T20:50:55.766Z,98424.18
2018-07-11T20:53:23.055Z,98425.77
2018-07-11T20:55:50.326Z,98420.27
2018-07-11T20:58:28.975Z,98426.30
2018-07-11T21:03:13.457Z,98422.33
2018-07-11T21:06:29.048Z,98420.14
2018-07-11T21:11:09.003Z,98416.78
2018-07-11T21:13:47.494Z,98415.97
2018-07-11T21:17:34.801Z,98416.97
2018-07-11T21:20:02.063Z,98418.89
2018-07-11T21:22:29.290Z,98425.76
2018-07-11T21:24:56.542Z,98430.80
2018-07-11T21:27:23.794Z,98436.63
2018-07-11T21:29:51.062Z,98437.02
2018-07-11T21:32:18.291Z,98442.32
2018-07-11T21:34:45.566Z,98452.52
2018-07-11T21:37:12.809Z,98442.17
2018-07-11T21:39:40.091Z,98446.03
2018-07-11T21:42:07.367Z,98446.42
2018-07-11T21:44:34.621Z,98446.89
2018-07-11T21:47:01.871Z,98454.25
2018-07-11T21:49:29.136Z,98452.50
2018-07-11T21:51:56.419Z,98446.30
2018-07-11T21:54:23.694Z,98451.72
2018-07-11T21:56:50.907Z,98450.41
2018-07-11T21:59:18.144Z,98451.53
2018-07-11T22:01:45.415Z,98453.27
2018-07-11T22:04:12.685Z,98444.57
2018-07-11T22:06:39.947Z,98451.98
2018-07-11T22:09:07.270Z,98454.84
2018-07-11T22:11:34.567Z,98447.30
2018-07-11T22:14:01.922Z,98448.55
2018-07-11T22:16:29.192Z,98440.47
2018-07-11T22:18:56.432Z,98443.27
2018-07-11T22:21:22.699Z,98439.36
2018-07-11T22:23:48.951Z,98435.18
2018-07-11T22:26:15.220Z,98425.30
2018-07-11T22:28:41.461Z,98431.67
2018-07-11T22:31:07.933Z,98436.21
2018-07-11T22:33:34.187Z,98435.03
2018-07-11T22:36:00.451Z,98437.28
2018-07-11T22:38:26.707Z,98441.10
2018-07-11T22:40:52.935Z,98440.41
2018-07-11T22:43:19.208Z,98438.87
2018-07-11T22:45:45.444Z,98441.66
2018-07-11T22:48:11.703Z,98441.03
2018-07-11T22:50:37.960Z,98441.17
2018-07-11T22:53:04.219Z,98437.84
2018-07-11T22:55:30.456Z,98442.74
2018-07-11T22:57:56.718Z,98444.42
2018-07-11T23:00:22.991Z,98431.67
2018-07-11T23:02:49.243Z,98427.77
2018-07-11T23:05:15.507Z,98427.39
2018-07-11T23:07:41.755Z,98428.84
2018-07-11T23:10:08.067Z,98428.94
2018-07-11T23:12:34.311Z,98434.34
2018-07-11T23:15:00.588Z,98430.14
2018-07-11T23:17:26.815Z,98437.73
2018-07-11T23:19:53.146Z,98438.94
2018-07-11T23:22:19.399Z,98440.14
2018-07-11T23:24:45.640Z,98446.16
2018-07-11T23:27:11.886Z,98451.77
2018-07-11T23:29:38.139Z,98448.02
2018-07-11T23:32:04.376Z,98447.61
2018-07-11T23:34:30.646Z,98446.23
2018-07-11T23:36:56.890Z,98444.05
2018-07-11T23:39:23.163Z,98440.09
2018-07-11T23:41:49.482Z,98439.84
2018-07-11T23:44:15.764Z,98438.18
2018-07-11T23:46:41.994Z,98436.46
2018-07-11T23:49:08.276Z,98440.07
2018-07-11T23:51:34.489Z,98432.78
2018-07-11T23:54:00.745Z,98431.86
2018-07-11T23:56:26.982Z,98431.92
2018-07-11T23:58:53.241Z,98429.22
